»·PEaware :: N53587 L52-L88

N53587 :: L52-L88

FLIGHT INFORMATION

Flight Status: Arrived
Operator: Privately registered:
United States
More flights under this callsign
Pilot: Louis G. (16930)
Aircraft: CESSNA 172 SKYHAWK
(C172)
More flights by this aircraft type
Origin: L52 Oceano Co
United States
Destination: L88 New Cuyama
United States
More flights between these airports :: More routes between these airports
Route: FLW
File this flight plan on PilotEdge
Remarks: CAT-1
Altitude:
(Current/Filed)
3,500ft
Speed:
(Current/Filed)
110kts
Departed: 12-Oct-17 06:38 PM
Arrived: 12-Oct-17 07:20 PM
Distance/Time
Traveled:
47nm/0:41
Distance/Time
To Go:
Arrived

Flight Plot

Page will automatically refresh every two minutes.


Map Options




Map Legend


Flown Route
Filed Route
Departure Airport
Arrival Airport
Navaid (VOR, NDB)
Fix

Horizontal Profiles

Position Reports

Time Latitude Longitude Heading Altitude Ground
Speed
12-Oct-17 18:03 34.101858 -117.225270 89 1144ft 0kts
12-Oct-17 18:04 34.101858 -117.225270 89 1144ft 0kts
12-Oct-17 18:05 34.101858 -117.225270 89 1144ft 0kts
12-Oct-17 18:06 34.101858 -117.225270 89 1144ft 0kts
12-Oct-17 18:07 34.101858 -117.225270 89 1144ft 0kts
12-Oct-17 18:08 34.101858 -117.225270 89 1144ft 0kts
12-Oct-17 18:09 34.101858 -117.225270 89 1144ft 0kts
12-Oct-17 18:10 34.101858 -117.225270 89 1144ft 0kts
12-Oct-17 18:11 34.101858 -117.225270 89 1144ft 0kts
12-Oct-17 18:12 34.101858 -117.225270 89 1144ft 0kts
12-Oct-17 18:13 34.101858 -117.225270 89 1144ft 0kts
12-Oct-17 18:14 34.101858 -117.225270 89 1144ft 0kts
12-Oct-17 18:15 34.101858 -117.225270 89 1144ft 0kts
12-Oct-17 18:16 34.101858 -117.225270 89 1144ft 0kts
12-Oct-17 18:17 34.101858 -117.225270 89 1144ft 0kts
12-Oct-17 18:18 34.101858 -117.225270 89 1144ft 0kts
12-Oct-17 18:19 34.101858 -117.225270 89 1144ft 0kts
12-Oct-17 18:20 34.101858 -117.225270 89 1144ft 0kts
12-Oct-17 18:21 34.101858 -117.225270 89 1144ft 0kts
12-Oct-17 18:22 34.101858 -117.225270 89 1144ft 0kts
12-Oct-17 18:24 34.101858 -117.225270 89 1144ft 0kts
12-Oct-17 18:25 34.101858 -117.225270 89 1144ft 0kts
12-Oct-17 18:26 34.101858 -117.225270 89 1144ft 0kts
12-Oct-17 18:27 34.101858 -117.225270 89 1144ft 0kts
12-Oct-17 18:28 35.103556 -120.624819 32 13ft 0kts
12-Oct-17 18:29 35.103556 -120.624819 32 13ft 0kts
12-Oct-17 18:30 35.103556 -120.624819 32 13ft 0kts
12-Oct-17 18:31 35.103556 -120.624819 32 13ft 0kts
12-Oct-17 18:32 35.103556 -120.624819 32 13ft 0kts
12-Oct-17 18:33 35.103556 -120.624819 32 13ft 0kts
12-Oct-17 18:34 35.103556 -120.624819 32 13ft 0kts
12-Oct-17 18:35 35.103556 -120.624819 32 13ft 0kts
12-Oct-17 18:36 35.103556 -120.624819 32 13ft 0kts
12-Oct-17 18:37 35.103556 -120.624819 32 13ft 0kts
12-Oct-17 18:38 35.103556 -120.624819 32 13ft 0kts
12-Oct-17 18:39 35.103810 -120.624957 310 13ft 3kts
12-Oct-17 18:40 35.103051 -120.624166 118 13ft 5kts
12-Oct-17 18:41 35.102157 -120.622595 125 15ft 7kts
12-Oct-17 18:42 35.101171 -120.621760 123 16ft 12kts
12-Oct-17 18:43 35.101525 -120.622459 305 16ft 43kts
12-Oct-17 18:44 35.104113 -120.641649 220 810ft 79kts
12-Oct-17 18:45 35.091460 -120.624938 66 1683ft 81kts
12-Oct-17 18:46 35.103635 -120.603920 46 2564ft 77kts
12-Oct-17 18:47 35.116645 -120.584212 39 3353ft 83kts
12-Oct-17 18:48 35.135438 -120.557721 57 3469ft 117kts
12-Oct-17 18:49 35.138854 -120.519402 88 3430ft 121kts
12-Oct-17 18:50 35.136446 -120.479316 99 3403ft 123kts
12-Oct-17 18:51 35.129362 -120.442453 99 3391ft 124kts
12-Oct-17 18:52 35.124123 -120.403361 94 3408ft 123kts
12-Oct-17 18:53 35.121170 -120.363085 100 3413ft 125kts
12-Oct-17 18:54 35.121170 -120.363085 100 3413ft 125kts
12-Oct-17 18:56 35.106897 -120.290495 93 3452ft 123kts
12-Oct-17 18:57 35.101151 -120.254699 92 3458ft 123kts
12-Oct-17 18:58 35.099160 -120.216446 86 3480ft 122kts
12-Oct-17 18:59 35.098134 -120.175258 88 3493ft 122kts
12-Oct-17 19:00 35.097308 -120.136006 83 3489ft 121kts
12-Oct-17 19:01 35.099470 -120.095768 81 3506ft 121kts
12-Oct-17 19:02 35.101242 -120.055368 86 3526ft 122kts
12-Oct-17 19:03 35.100115 -120.014658 88 3545ft 122kts
12-Oct-17 19:04 35.096191 -119.973672 94 3561ft 123kts
12-Oct-17 19:05 35.090789 -119.933880 92 3822ft 122kts
12-Oct-17 19:06 35.089984 -119.895544 83 4153ft 121kts
12-Oct-17 19:07 35.088741 -119.860296 100 4445ft 123kts
12-Oct-17 19:08 35.071979 -119.824948 129 4757ft 122kts
12-Oct-17 19:09 35.051254 -119.793883 118 5048ft 122kts
12-Oct-17 19:10 35.041133 -119.755908 112 5174ft 123kts
12-Oct-17 19:11 35.023215 -119.724284 138 5143ft 124kts
12-Oct-17 19:12 34.995022 -119.702817 165 4802ft 121kts
12-Oct-17 19:13 34.963428 -119.694210 179 4571ft 111kts
12-Oct-17 19:14 34.935445 -119.683812 140 4431ft 111kts
12-Oct-17 19:15 34.911738 -119.683670 244 3992ft 96kts
12-Oct-17 19:16 34.919305 -119.711999 332 3494ft 100kts
12-Oct-17 19:17 34.932121 -119.688887 117 3265ft 98kts
12-Oct-17 19:18 34.921294 -119.662047 81 3187ft 87kts
12-Oct-17 19:19 34.933790 -119.671073 301 2788ft 68kts
12-Oct-17 19:20 34.942451 -119.692122 301 3128ft 81kts
12-Oct-17 19:21 34.928431 -119.699518 120 3161ft 104kts
12-Oct-17 19:22 34.917601 -119.671507 103 3194ft 88kts
12-Oct-17 19:23 34.933501 -119.661276 302 2863ft 80kts
12-Oct-17 19:24 34.938823 -119.682864 291 2192ft 53kts
12-Oct-17 19:25 34.942725 -119.691241 6 2152ft 13kts
12-Oct-17 19:26 34.942961 -119.690777 103 2152ft 0kts
12-Oct-17 19:27 34.942961 -119.690777 103 2152ft 0kts

Navigation Log

Ident Type
Flight plan parsing failed, navigation log unavailable